Time;durP1;ratioP1;P1;durP2;ratioP2;P2;SDS_P1;SDS_P2;PMS_P1;PMS_P2;Temp;Humidity;BMP_temperature;BMP_pressure;BME280_temperature;BME280_humidity;BME280_pressure;Samples;Min_cycle;Max_cycle;Signal;HPM_P1;HPM_P2
2022/06/24 00:00:16;;;;;;;6.72;2.85;;;20.90;99.90;;;21.51;65.53;97140.78;5025434;28;20060;-45
2022/06/24 00:02:49;;;;;;;4.53;2.00;;;20.80;99.90;;;21.49;65.66;97145.63;5024742;28;20236;-46
2022/06/24 00:05:16;;;;;;;3.15;1.40;;;20.90;99.90;;;21.49;66.14;97139.41;5024518;28;20349;-48
2022/06/24 00:07:50;;;;;;;5.25;1.60;;;20.90;99.90;;;21.47;65.66;97139.63;5024173;28;20068;-47
2022/06/24 00:10:33;;;;;;;5.03;2.00;;;20.90;99.90;;;21.48;65.80;97135.88;5023797;28;20054;-45
2022/06/24 00:13:02;;;;;;;3.00;1.55;;;20.90;99.90;;;21.52;65.71;97130.75;5024474;28;20042;-47
2022/06/24 00:15:34;;;;;;;4.35;1.70;;;21.00;99.90;;;21.50;65.89;97143.72;5024836;28;20060;-48
2022/06/24 00:18:13;;;;;;;4.43;1.90;;;20.90;99.90;;;21.46;66.13;97138.00;5024206;28;20052;-45
2022/06/24 00:20:47;;;;;;;5.03;1.73;;;20.90;99.90;;;21.43;66.67;97133.03;5024409;28;20055;-47
2022/06/24 00:23:17;;;;;;;3.17;1.80;;;20.80;99.90;;;21.40;66.78;97138.91;5024225;28;20046;-48
2022/06/24 00:25:52;;;;;;;4.03;1.92;;;20.80;99.90;;;21.35;67.23;97141.56;5024841;28;20340;-48
2022/06/24 00:28:25;;;;;;;3.75;1.38;;;20.70;99.90;;;21.38;66.79;97135.63;5024672;28;20064;-47
2022/06/24 00:30:56;;;;;;;6.38;1.83;;;20.80;99.90;;;21.36;66.74;97135.88;5024551;28;20062;-45
2022/06/24 00:33:31;;;;;;;4.15;1.90;;;20.80;99.90;;;21.32;67.14;97132.00;5024109;28;20053;-48
2022/06/24 00:35:59;;;;;;;4.95;1.80;;;20.70;99.90;;;21.31;66.88;97143.09;5022903;28;20050;-45
2022/06/24 00:38:37;;;;;;;3.30;1.55;;;20.70;99.90;;;21.33;66.76;97132.84;5023871;28;20366;-49
2022/06/24 00:41:13;;;;;;;4.40;2.10;;;20.80;99.90;;;21.38;66.78;97124.81;5023941;28;20068;-47
2022/06/24 00:43:45;;;;;;;6.72;1.60;;;20.90;99.90;;;21.36;66.59;97127.75;5024067;28;20041;-45
2022/06/24 00:46:23;;;;;;;4.53;1.67;;;20.90;99.90;;;21.37;66.07;97131.31;5023991;28;20117;-46
2022/06/24 00:48:52;;;;;;;3.60;1.85;;;21.00;99.90;;;21.40;66.55;97122.66;5023656;28;20053;-45
2022/06/24 00:51:22;;;;;;;3.85;1.83;;;21.00;99.90;;;21.40;66.50;97117.25;5023558;28;20247;-45
2022/06/24 00:53:54;;;;;;;2.70;1.98;;;21.00;99.90;;;21.45;66.43;97111.16;5023472;28;20366;-52
2022/06/24 00:56:26;;;;;;;2.75;1.88;;;21.00;99.90;;;21.49;66.39;97099.59;5024373;28;20121;-48
2022/06/24 00:58:56;;;;;;;4.03;1.87;;;21.10;99.90;;;21.49;66.29;97085.22;5023319;28;20084;-46
2022/06/24 01:01:36;;;;;;;12.02;1.88;;;21.10;99.90;;;21.51;66.50;97094.75;5023801;28;20303;-47
2022/06/24 01:04:10;;;;;;;2.65;1.50;;;21.00;99.90;;;21.51;66.44;97094.75;5023593;28;20046;-45
2022/06/24 01:06:42;;;;;;;4.30;1.70;;;21.00;99.90;;;21.53;66.44;97089.09;5023546;28;20060;-46
2022/06/24 01:09:11;;;;;;;5.07;2.35;;;21.00;99.90;;;21.53;66.71;97089.09;5023852;28;20053;-48
2022/06/24 01:11:42;;;;;;;2.53;1.80;;;21.00;99.90;;;21.48;66.53;97079.00;5022463;28;20049;-45
2022/06/24 01:14:11;;;;;;;2.33;1.80;;;20.90;99.90;;;21.45;66.81;97090.31;5023393;28;20377;-45
2022/06/24 01:16:39;;;;;;;4.75;2.00;;;20.90;99.90;;;;;;5023279;28;20054;-46
2022/06/24 01:19:13;;;;;;;4.60;2.00;;;20.90;99.90;;;21.36;66.54;97083.63;5023070;28;20041;-46
2022/06/24 01:21:50;;;;;;;4.45;1.80;;;20.80;99.90;;;21.34;66.41;97088.44;5023124;28;20045;-46
2022/06/24 01:24:23;;;;;;;3.00;2.17;;;20.80;99.90;;;21.27;66.75;97094.03;5023599;28;20064;-47
2022/06/24 01:26:53;;;;;;;2.85;1.90;;;20.70;99.90;;;21.28;66.73;97094.84;5023215;28;20252;-50
2022/06/24 01:29:22;;;;;;;4.90;2.00;;;20.70;99.90;;;21.27;66.84;97094.03;5022930;28;20049;-46
2022/06/24 01:31:53;;;;;;;6.22;2.10;;;20.70;99.90;;;21.27;66.45;97085.91;5022892;28;20150;-51
2022/06/24 01:34:23;;;;;;;2.42;1.83;;;20.70;99.90;;;21.24;67.03;97076.38;5023434;28;20053;-46
2022/06/24 01:36:51;;;;;;;2.90;1.60;;;20.70;99.90;;;21.24;66.37;97072.84;5022125;28;20060;-46
2022/06/24 01:39:20;;;;;;;4.47;1.80;;;20.70;99.90;;;21.28;66.76;97067.78;5022448;28;20041;-46
2022/06/24 01:41:50;;;;;;;2.88;1.63;;;20.80;99.90;;;21.24;66.37;97073.66;5022427;28;20069;-47
2022/06/24 01:44:19;;;;;;;4.80;1.92;;;20.70;99.90;;;21.18;66.74;97090.06;5022730;28;20069;-47
2022/06/24 01:46:46;;;;;;;5.18;2.22;;;20.60;99.90;;;21.14;66.38;97083.50;5022694;28;20053;-48
2022/06/24 01:49:14;;;;;;;3.88;2.05;;;20.70;99.90;;;21.12;66.45;97085.63;5022415;28;20045;-44
2022/06/24 01:51:47;;;;;;;3.75;1.90;;;20.70;99.90;;;21.07;66.56;97089.03;5022592;28;20056;-49
2022/06/24 01:54:15;;;;;;;5.90;2.65;;;20.60;99.90;;;21.05;66.39;97091.19;5021017;28;20057;-46
2022/06/24 01:56:43;;;;;;;5.15;2.15;;;20.50;99.90;;;20.99;65.85;97076.72;5022434;28;20052;-48
2022/06/24 01:59:16;;;;;;;4.93;2.95;;;20.50;99.90;;;20.96;65.88;97071.00;5022911;28;20052;-47
2022/06/24 02:01:44;;;;;;;3.67;2.13;;;20.40;99.90;;;20.93;65.76;97066.06;5022468;28;20041;-49
2022/06/24 02:04:13;;;;;;;3.70;2.10;;;20.40;99.90;;;20.89;65.68;97071.13;5022188;28;20045;-47
2022/06/24 02:06:41;;;;;;;3.88;2.20;;;20.40;99.90;;;20.84;65.93;97074.56;5022567;28;20155;-46
2022/06/24 02:09:09;;;;;;;4.70;2.58;;;20.30;99.90;;;20.84;66.28;97079.16;5022160;28;20053;-45
2022/06/24 02:14:24;;;;;;;3.47;2.10;;;20.30;99.90;;;20.78;65.79;97063.88;5022085;28;20079;-44
2022/06/24 02:16:52;;;;;;;6.85;2.17;;;20.20;99.90;;;20.75;65.80;97057.06;5021668;28;20060;-46
2022/06/24 02:19:21;;;;;;;4.05;2.72;;;20.20;99.90;;;20.71;65.96;97055.91;5022034;28;20048;-47
2022/06/24 02:21:49;;;;;;;4.70;2.20;;;20.10;99.90;;;20.65;65.95;97054.19;5022836;28;20060;-48
2022/06/24 02:24:17;;;;;;;5.13;2.78;;;20.10;99.90;;;20.60;66.33;97049.47;5022238;28;20045;-45
2022/06/24 02:26:45;;;;;;;6.15;2.83;;;20.00;99.90;;;20.56;66.45;97059.09;5022319;28;20083;-50
2022/06/24 02:29:13;;;;;;;8.80;3.10;;;20.00;99.90;;;20.52;66.48;97055.22;5022756;28;20053;-46
2022/06/24 02:31:41;;;;;;;5.93;3.38;;;20.00;99.90;;;20.52;66.34;97049.00;5022311;28;20267;-46
2022/06/24 02:34:09;;;;;;;5.65;2.35;;;20.00;99.90;;;20.46;66.45;97043.47;5021781;28;20052;-45
2022/06/24 02:36:37;;;;;;;4.75;2.95;;;19.90;99.90;;;20.40;66.29;97040.94;5022558;28;20076;-46
2022/06/24 02:39:07;;;;;;;7.35;2.83;;;19.80;99.90;;;20.33;66.40;97037.53;5021687;28;20348;-46
2022/06/24 02:41:34;;;;;;;5.80;2.78;;;19.70;99.90;;;20.24;66.42;97045.19;5022361;28;20056;-44
2022/06/24 02:44:02;;;;;;;6.05;2.95;;;19.70;99.90;;;20.21;66.55;97046.47;5021202;28;20060;-44
2022/06/24 02:46:30;;;;;;;3.78;2.65;;;19.70;99.90;;;20.18;66.45;97041.56;5021845;28;20060;-46
2022/06/24 02:48:58;;;;;;;7.80;3.20;;;19.60;99.90;;;20.17;66.63;97045.31;5021516;28;20046;-47
2022/06/24 02:51:26;;;;;;;3.30;2.35;;;19.60;99.90;;;20.14;66.56;97043.09;5021853;28;20244;-45
2022/06/24 02:53:54;;;;;;;4.10;2.60;;;19.60;99.90;;;20.11;66.81;97048.16;5021492;28;20054;-46
2022/06/24 02:56:22;;;;;;;6.85;2.80;;;19.60;99.90;;;20.06;66.77;97044.28;5021714;28;20072;-44
2022/06/24 02:58:50;;;;;;;7.55;3.10;;;19.60;99.90;;;20.02;66.84;97053.88;5021527;28;20045;-47
2022/06/24 03:01:18;;;;;;;8.15;2.42;;;19.50;99.90;;;20.00;66.60;97045.19;5021786;28;20072;-47
2022/06/24 03:03:46;;;;;;;4.57;2.45;;;19.50;99.90;;;19.95;66.75;97044.25;5021542;28;20064;-46
2022/06/24 03:06:14;;;;;;;5.88;2.58;;;19.40;99.90;;;19.89;66.95;97037.09;5022236;28;20058;-46
2022/06/24 03:08:43;;;;;;;10.98;3.00;;;19.30;99.90;;;19.81;67.11;97049.06;5021857;28;20056;-45
2022/06/24 03:11:14;;;;;;;6.35;2.50;;;19.30;99.90;;;19.80;67.20;97048.25;5021225;28;20060;-45
2022/06/24 03:13:42;;;;;;;8.82;2.92;;;19.30;99.90;;;19.79;67.10;97041.22;5021658;28;20049;-46
2022/06/24 03:16:09;;;;;;;6.60;2.58;;;19.30;99.90;;;19.81;66.96;97047.22;5022065;28;20052;-47
2022/06/24 03:18:37;;;;;;;5.57;2.28;;;19.30;99.90;;;19.83;66.91;97049.66;5021044;28;20041;-48
2022/06/24 03:21:07;;;;;;;6.65;2.92;;;19.40;99.90;;;19.82;66.95;97050.72;5022416;28;20050;-48
2022/06/24 03:23:36;;;;;;;4.50;2.28;;;19.40;99.90;;;19.78;67.05;97047.69;5021442;28;20044;-48
2022/06/24 03:26:04;;;;;;;4.32;2.13;;;19.30;99.90;;;19.73;67.03;97052.13;5021332;28;20076;-46
2022/06/24 03:28:32;;;;;;;7.95;3.30;;;19.30;99.90;;;19.74;66.90;97040.28;5022339;28;20058;-46
2022/06/24 03:31:00;;;;;;;3.50;2.20;;;19.20;99.90;;;19.76;66.92;97041.69;5025462;28;20072;-47
2022/06/24 03:33:27;;;;;;;6.07;2.85;;;19.30;99.90;;;19.74;67.00;97030.31;5025674;28;20050;-45
2022/06/24 03:35:55;;;;;;;4.15;2.40;;;19.30;99.90;;;19.75;66.91;97040.03;5025301;28;20050;-49
2022/06/24 03:38:23;;;;;;;4.07;2.58;;;19.30;99.90;;;19.74;66.99;97033.00;5024775;28;20041;-46
2022/06/24 03:40:51;;;;;;;5.05;2.88;;;19.30;99.90;;;19.77;66.93;97032.50;5025010;28;20056;-44
2022/06/24 03:43:19;;;;;;;6.63;2.65;;;19.30;99.90;;;19.78;66.70;97036.88;5024845;28;20045;-46
2022/06/24 03:45:46;;;;;;;7.50;3.35;;;19.40;99.90;;;19.79;66.62;97037.69;5024818;28;20056;-46
2022/06/24 03:48:15;;;;;;;5.47;2.78;;;19.30;99.90;;;19.77;67.00;97037.91;5024414;28;20049;-45
2022/06/24 03:50:42;;;;;;;7.45;2.50;;;19.40;99.90;;;19.82;66.43;97031.84;5025568;28;20050;-47
2022/06/24 03:53:13;;;;;;;8.98;3.10;;;19.40;99.90;;;19.73;66.45;97028.66;5024794;28;20240;-47
2022/06/24 03:55:41;;;;;;;7.00;3.30;;;19.30;99.90;;;19.74;66.45;97026.78;5025266;28;20230;-46
2022/06/24 03:58:09;;;;;;;5.30;3.08;;;19.20;99.90;;;19.75;66.43;97023.00;5024895;28;20076;-48
2022/06/24 04:00:37;;;;;;;3.95;2.38;;;19.20;99.90;;;19.72;66.57;97018.09;5024984;28;20152;-47
2022/06/24 04:03:04;;;;;;;5.45;2.88;;;19.20;99.90;;;19.66;66.64;97017.94;5024604;28;20049;-47
2022/06/24 04:05:32;;;;;;;6.70;2.90;;;19.20;99.90;;;19.67;66.57;97014.16;5025366;28;20057;-45
2022/06/24 04:08:00;;;;;;;6.30;2.53;;;19.20;99.90;;;19.67;66.59;97016.06;5024815;28;20054;-46
2022/06/24 04:10:28;;;;;;;5.72;2.60;;;19.20;99.90;;;19.68;66.62;97007.72;5023895;28;20041;-46
2022/06/24 04:12:56;;;;;;;5.15;2.60;;;19.30;99.90;;;19.65;66.57;97020.88;5024841;28;20274;-45
2022/06/24 04:15:24;;;;;;;7.28;2.90;;;19.20;99.90;;;19.61;66.73;97019.69;5023327;28;20045;-48
2022/06/24 04:17:52;;;;;;;7.72;2.92;;;19.20;99.90;;;19.58;66.87;97026.41;5024050;28;20050;-45
2022/06/24 04:20:20;;;;;;;6.10;3.33;;;19.10;99.90;;;19.56;66.96;97028.50;5025019;28;20053;-48
2022/06/24 04:22:48;;;;;;;4.53;2.95;;;19.10;99.90;;;19.54;67.04;97030.63;5024162;28;20058;-44
2022/06/24 04:25:16;;;;;;;5.97;2.85;;;19.10;99.90;;;19.54;66.89;97019.81;5024251;28;20046;-46
2022/06/24 04:27:45;;;;;;;7.40;3.17;;;19.10;99.90;;;19.58;67.07;97023.69;5022931;28;20050;-46
2022/06/24 04:30:13;;;;;;;7.93;2.90;;;19.10;99.90;;;19.62;66.94;97016.78;5024559;28;20054;-44
2022/06/24 04:32:41;;;;;;;6.38;2.83;;;19.20;99.90;;;19.63;66.95;97020.28;5024176;28;20056;-45
2022/06/24 04:35:10;;;;;;;4.47;2.35;;;19.20;99.90;;;19.63;66.91;97022.97;5023832;28;20089;-45
2022/06/24 04:37:39;;;;;;;4.75;2.17;;;19.20;99.90;;;19.66;66.95;97022.53;5023923;28;20056;-46
2022/06/24 04:40:12;;;;;;;4.82;3.33;;;19.30;99.90;;;19.70;66.85;97022.84;5023657;28;20236;-44
2022/06/24 04:42:40;;;;;;;4.95;3.60;;;19.30;99.90;;;19.72;66.90;97016.22;5024131;28;20085;-45
2022/06/24 04:45:09;;;;;;;4.32;2.40;;;19.40;99.90;;;19.71;67.00;97019.13;5023828;28;20048;-47
2022/06/24 04:47:37;;;;;;;4.95;3.03;;;19.30;99.90;;;19.73;66.95;97017.03;5023632;28;20356;-48
2022/06/24 04:50:07;;;;;;;6.70;2.83;;;19.40;99.90;;;19.77;66.93;97021.72;5023808;28;20049;-46
2022/06/24 04:52:37;;;;;;;6.43;2.92;;;19.50;99.90;;;19.82;66.94;97021.03;5023788;28;20056;-47
2022/06/24 04:55:06;;;;;;;4.88;2.58;;;19.50;99.90;;;19.84;66.73;97006.22;5023597;28;20054;-45
2022/06/24 04:57:35;;;;;;;6.07;2.70;;;19.50;99.90;;;19.86;66.63;97006.81;5023479;28;20052;-44
2022/06/24 05:00:05;;;;;;;5.22;3.00;;;19.60;99.90;;;19.90;66.76;97001.75;5023760;28;20042;-46
2022/06/24 05:02:32;;;;;;;4.88;2.95;;;19.60;99.90;;;19.92;66.82;97007.75;5023787;28;20042;-46
2022/06/24 05:05:02;;;;;;;4.03;2.38;;;19.60;99.90;;;19.95;66.81;97003.72;5023645;28;20048;-43
2022/06/24 05:07:30;;;;;;;7.43;3.25;;;19.60;99.90;;;20.00;66.91;97007.38;5023496;28;20360;-47
2022/06/24 05:09:57;;;;;;;4.82;3.10;;;19.70;99.90;;;20.08;66.71;97014.28;5022702;28;20075;-47
2022/06/24 05:12:26;;;;;;;4.82;2.80;;;19.80;99.90;;;20.11;66.52;97013.84;5023291;28;20336;-47
2022/06/24 05:14:55;;;;;;;7.35;2.90;;;19.80;99.90;;;20.17;66.56;97020.16;5023719;28;20046;-48
2022/06/24 05:17:24;;;;;;;5.10;2.63;;;19.90;99.90;;;20.20;66.67;97008.88;5023586;28;20044;-45
2022/06/24 05:19:53;;;;;;;5.32;2.85;;;19.90;99.90;;;20.26;66.53;97013.34;5023788;28;20046;-48
2022/06/24 05:22:21;;;;;;;6.35;3.25;;;20.00;99.90;;;20.28;66.28;97005.81;5022924;28;20048;-45
2022/06/24 05:24:49;;;;;;;4.97;3.33;;;20.00;99.90;;;20.32;66.40;97006.97;5023291;28;20054;-47
2022/06/24 05:27:17;;;;;;;5.50;3.25;;;20.00;99.90;;;20.37;66.04;97008.94;5023774;28;20056;-46
2022/06/24 05:29:45;;;;;;;5.57;3.17;;;20.10;99.90;;;20.41;65.86;97013.66;5023298;28;20053;-52
2022/06/24 05:32:13;;;;;;;8.07;3.30;;;20.20;99.90;;;20.43;66.03;97011.53;5023619;28;20056;-45
2022/06/24 05:34:41;;;;;;;6.63;2.80;;;20.20;99.90;;;20.51;66.02;97009.50;5023249;28;20099;-44
2022/06/24 05:37:08;;;;;;;5.45;2.50;;;20.30;99.90;;;20.54;66.08;97009.84;5023470;28;20041;-47
2022/06/24 05:39:36;;;;;;;4.93;2.88;;;20.40;99.90;;;20.54;65.94;97009.03;5023133;28;20272;-48
2022/06/24 05:42:04;;;;;;;5.55;2.88;;;20.40;99.90;;;20.58;65.73;97013.69;5023470;28;20240;-45
2022/06/24 05:44:33;;;;;;;4.88;2.90;;;20.40;99.90;;;20.57;65.78;97005.81;5022941;28;20045;-47
2022/06/24 05:47:00;;;;;;;6.07;3.00;;;20.40;99.90;;;20.58;65.55;97007.47;5023129;28;20382;-48
2022/06/24 05:49:28;;;;;;;5.97;2.70;;;20.40;99.90;;;20.62;65.64;97001.38;5022961;28;20053;-49
2022/06/24 05:51:56;;;;;;;7.05;3.20;;;20.50;99.90;;;20.68;66.07;97002.28;5022603;28;20057;-46
2022/06/24 05:57:10;;;;;;;6.97;3.47;;;20.60;99.90;;;20.80;65.76;97007.66;5023296;28;20048;-47
2022/06/24 05:59:39;;;;;;;8.57;2.95;;;20.70;99.90;;;20.84;65.55;97006.13;5022803;28;20048;-47
2022/06/24 06:02:06;;;;;;;5.18;2.70;;;20.80;99.90;;;20.87;65.35;97005.63;5023103;28;20244;-46
2022/06/24 06:04:35;;;;;;;7.80;3.67;;;20.80;99.90;;;20.91;65.67;97012.19;5022689;28;20038;-45
2022/06/24 06:07:03;;;;;;;7.18;3.42;;;20.80;99.90;;;20.96;65.51;97004.16;5023064;28;20052;-44
2022/06/24 06:09:32;;;;;;;7.15;2.63;;;20.80;99.90;;;20.99;65.35;97009.06;5023012;28;20076;-47
2022/06/24 06:12:00;;;;;;;5.60;3.13;;;20.90;99.90;;;21.02;65.03;97005.09;5020817;28;20046;-44
2022/06/24 06:14:28;;;;;;;4.80;2.50;;;20.90;99.90;;;21.04;64.90;97009.19;5022660;28;20046;-45
2022/06/24 06:17:02;;;;;;;6.15;2.45;;;20.90;99.90;;;21.10;64.98;97010.09;5022764;28;20052;-49
2022/06/24 06:19:32;;;;;;;5.53;2.83;;;21.00;99.90;;;21.14;65.00;97015.84;5022544;28;20044;-46
2022/06/24 06:22:04;;;;;;;3.80;3.00;;;21.00;99.90;;;21.17;64.89;97016.19;5021753;28;20048;-48
2022/06/24 06:24:32;;;;;;;6.80;3.00;;;21.00;99.90;;;21.22;65.02;97004.63;5022460;28;20046;-45
2022/06/24 06:27:00;;;;;;;7.05;2.80;;;21.10;99.90;;;21.28;64.65;97016.34;5023184;28;20058;-47
2022/06/24 06:29:28;;;;;;;5.85;3.13;;;21.20;99.90;;;21.23;65.28;97023.31;5022380;28;20071;-46
2022/06/24 06:31:56;;;;;;;8.30;3.50;;;21.10;99.90;;;21.31;64.64;97027.50;5021592;28;20340;-49
2022/06/24 06:34:24;;;;;;;7.63;2.83;;;21.20;99.90;;;21.37;64.78;97017.59;5022627;28;20056;-47
2022/06/24 06:36:52;;;;;;;6.97;3.50;;;21.30;99.90;;;21.45;64.26;97022.63;5022628;28;20056;-48
2022/06/24 06:39:20;;;;;;;6.38;4.28;;;21.40;99.90;;;21.51;64.21;97020.81;5022023;28;20052;-45
2022/06/24 06:41:47;;;;;;;8.18;3.10;;;21.40;99.90;;;21.57;63.72;97023.34;5022678;28;20063;-47
2022/06/24 06:44:16;;;;;;;7.32;3.72;;;21.60;99.90;;;21.65;63.66;97018.59;5021153;28;20056;-47
2022/06/24 06:46:44;;;;;;;6.50;2.97;;;21.70;99.90;;;21.68;63.42;97018.94;5021873;28;20064;-47
2022/06/24 06:49:12;;;;;;;7.65;2.80;;;21.70;99.90;;;21.75;63.83;97026.88;5022988;28;20056;-48
2022/06/24 06:51:40;;;;;;;4.13;2.80;;;21.70;99.90;;;21.79;63.13;97028.00;5022267;28;20060;-45
2022/06/24 06:54:08;;;;;;;9.52;3.33;;;21.80;99.90;;;21.81;63.09;97024.00;5023148;28;20058;-44
2022/06/24 06:56:36;;;;;;;6.03;2.70;;;21.80;99.90;;;21.87;62.92;97018.63;5022369;28;20068;-45
2022/06/24 06:59:04;;;;;;;6.88;2.90;;;21.80;99.90;;;21.92;63.14;97014.13;5022116;28;20264;-46
2022/06/24 07:01:32;;;;;;;7.53;3.53;;;21.90;99.90;;;21.98;62.60;97012.31;5023200;28;20056;-44
2022/06/24 07:04:00;;;;;;;6.68;4.22;;;22.00;99.90;;;22.03;62.23;97013.19;5024604;28;20222;-47
2022/06/24 07:06:28;;;;;;;4.72;3.03;;;22.10;99.90;;;22.11;62.10;97021.97;5025748;28;20046;-47
2022/06/24 07:08:55;;;;;;;6.10;2.92;;;22.20;99.90;;;22.16;61.65;97014.72;5026730;28;20050;-45
2022/06/24 07:11:23;;;;;;;4.43;3.45;;;22.30;99.90;;;22.21;61.64;97009.38;5025147;28;20076;-47
2022/06/24 07:13:51;;;;;;;6.72;2.78;;;22.30;99.90;;;22.27;61.24;97007.56;5041285;28;20283;-48
2022/06/24 07:16:19;;;;;;;5.35;2.78;;;22.40;99.90;;;22.23;60.09;97014.53;5025905;28;20055;-46
2022/06/24 07:18:47;;;;;;;5.60;2.70;;;22.40;94.50;;;22.20;59.46;97017.78;5025108;28;20052;-49
2022/06/24 07:21:15;;;;;;;5.75;2.60;;;22.30;95.20;;;22.32;59.66;97014.97;5026055;28;20052;-49
2022/06/24 07:23:42;;;;;;;3.78;2.75;;;22.40;95.70;;;22.47;59.51;97017.88;5041479;28;20054;-50
2022/06/24 07:26:10;;;;;;;4.75;2.80;;;22.70;93.90;;;22.59;58.91;97015.03;5025524;28;20052;-45
2022/06/24 07:28:38;;;;;;;5.88;2.80;;;22.80;91.50;;;22.69;58.80;97009.69;5024918;28;20239;-49
2022/06/24 07:31:20;;;;;;;6.30;3.50;;;22.90;89.70;;;22.86;57.99;97006.09;5025836;28;20064;-49
2022/06/24 07:33:48;;;;;;;5.18;2.55;;;23.20;82.40;;;22.97;58.42;97005.94;5025755;28;20045;-46
2022/06/24 07:36:16;;;;;;;4.70;2.78;;;23.30;84.20;;;23.07;58.30;97015.28;5025531;28;20050;-44
2022/06/24 07:38:44;;;;;;;3.25;2.35;;;23.30;83.00;;;23.10;57.34;97014.78;5025425;28;20067;-47
2022/06/24 07:41:13;;;;;;;5.50;2.95;;;23.30;80.70;;;23.12;56.71;97010.72;5025578;28;20148;-48
2022/06/24 07:43:40;;;;;;;7.72;3.03;;;23.20;77.60;;;23.08;56.39;97008.78;5025287;28;20042;-44
2022/06/24 07:46:11;;;;;;;6.40;4.10;;;23.20;76.60;;;23.07;55.45;97010.69;5026097;28;20050;-44
2022/06/24 07:48:39;;;;;;;8.00;3.22;;;23.20;73.10;;;23.13;55.65;97006.13;5025875;28;20058;-46
2022/06/24 07:51:16;;;;;;;3.92;2.95;;;23.20;74.60;;;23.16;55.45;96995.53;5025990;28;20058;-47
2022/06/24 07:53:46;;;;;;;3.30;2.80;;;23.20;71.80;;;23.06;55.70;97002.78;5025447;28;20049;-46
2022/06/24 07:59:05;;;;;;;9.23;3.60;;;22.80;81.70;;;22.61;61.02;97010.97;5025090;28;20042;-45
2022/06/24 08:01:34;;;;;;;4.65;3.45;;;22.40;88.30;;;22.45;61.25;97011.88;5025295;28;20052;-46
2022/06/24 08:04:09;;;;;;;7.25;3.20;;;22.20;89.80;;;22.33;61.94;97006.59;5025021;28;20080;-48
2022/06/24 08:06:40;;;;;;;9.65;5.50;;;22.00;91.40;;;22.10;63.08;97010.31;5025142;28;20042;-47
2022/06/24 08:09:08;;;;;;;11.13;4.85;;;21.90;94.10;;;22.08;62.41;97008.91;5024952;28;20049;-47
2022/06/24 08:11:36;;;;;;;6.80;3.83;;;21.80;93.10;;;22.10;62.56;97007.63;5024012;28;20352;-48
2022/06/24 08:14:04;;;;;;;5.82;3.05;;;21.90;92.80;;;22.02;61.85;97005.31;5042085;28;20065;-47
2022/06/24 08:16:33;;;;;;;8.25;3.45;;;21.90;91.00;;;22.14;61.96;97003.31;5044203;28;20343;-45
2022/06/24 08:19:00;;;;;;;5.40;3.55;;;21.90;91.70;;;22.13;61.62;96993.53;5044560;28;20045;-47
2022/06/24 08:21:28;;;;;;;9.10;3.80;;;22.00;89.80;;;22.13;61.29;96998.16;5044724;28;20049;-48
2022/06/24 08:23:57;;;;;;;4.60;3.15;;;21.90;88.40;;;22.01;61.58;96988.22;5044437;28;20075;-46
2022/06/24 08:26:25;;;;;;;6.88;3.75;;;21.80;88.30;;;22.05;61.18;96993.16;5044910;28;20045;-45
2022/06/24 08:28:53;;;;;;;5.40;3.40;;;21.80;88.60;;;22.01;61.93;96984.72;5044340;28;20045;-46
2022/06/24 08:31:21;;;;;;;6.70;3.80;;;21.90;88.70;;;22.01;61.36;96979.28;5044435;28;20056;-49
2022/06/24 08:33:49;;;;;;;6.95;3.90;;;21.80;88.30;;;22.14;61.25;96986.22;5044482;28;20059;-50
2022/06/24 08:36:17;;;;;;;7.45;4.25;;;22.00;88.00;;;22.03;60.91;96988.81;5044615;28;20053;-49
2022/06/24 08:38:46;;;;;;;8.57;5.15;;;22.00;85.80;;;22.07;61.00;96982.91;5043949;28;20049;-47
2022/06/24 08:41:19;;;;;;;6.20;3.83;;;22.00;85.70;;;22.10;60.84;96980.50;5044340;28;20216;-48
2022/06/24 08:43:49;;;;;;;;;;;22.10;84.90;;;22.06;60.48;96967.69;5043564;28;20045;-47
2022/06/24 08:46:17;;;;;;;7.95;3.13;;;22.10;83.10;;;22.40;61.00;96963.00;5043181;28;19943;-48
2022/06/24 08:48:45;;;;;;;5.40;3.50;;;22.50;84.80;;;22.66;60.82;96960.56;5044090;28;20362;-44
2022/06/24 08:51:14;;;;;;;4.18;3.03;;;22.90;83.50;;;22.82;59.75;96962.38;5042931;28;20045;-44
2022/06/24 08:53:45;;;;;;;5.78;3.22;;;23.10;80.10;;;22.85;59.95;96956.41;5044175;28;20171;-45
2022/06/24 08:56:17;;;;;;;5.93;3.72;;;23.10;80.10;;;22.81;59.54;96960.72;5044619;28;20051;-46
2022/06/24 08:58:44;;;;;;;4.20;2.80;;;22.90;79.40;;;22.81;58.63;96964.25;5043812;28;20240;-44
2022/06/24 09:01:16;;;;;;;5.53;2.97;;;22.80;79.20;;;22.76;58.46;96961.50;5044010;28;20041;-44
2022/06/24 09:03:45;;;;;;;5.50;2.90;;;22.70;78.80;;;22.79;58.47;96955.53;5044619;28;20056;-44
2022/06/24 09:06:16;;;;;;;5.38;3.28;;;22.70;77.90;;;22.82;58.29;96959.66;5044540;28;20053;-44
2022/06/24 09:08:50;;;;;;;3.53;2.92;;;22.80;77.80;;;22.91;57.93;96954.56;5043630;28;20051;-44
2022/06/24 09:11:18;;;;;;;4.97;3.10;;;22.90;76.60;;;22.93;59.13;96946.97;5042809;28;20060;-48
2022/06/24 09:13:53;;;;;;;6.07;2.97;;;23.00;79.20;;;22.81;59.54;96947.16;5043850;28;20045;-45
2022/06/24 09:16:25;;;;;;;4.80;3.28;;;23.00;79.30;;;22.80;59.77;96957.19;5043838;28;20374;-46
2022/06/24 09:18:57;;;;;;;3.75;3.10;;;22.90;79.70;;;22.59;59.66;96956.16;5044249;28;20356;-45
2022/06/24 09:21:34;;;;;;;6.13;3.40;;;22.50;79.90;;;22.34;59.91;96950.47;5043701;28;20045;-46
2022/06/24 09:24:03;;;;;;;6.95;3.83;;;22.20;81.30;;;22.44;60.06;96947.03;5043566;28;20358;-44
2022/06/24 09:26:34;;;;;;;4.95;3.08;;;22.20;81.60;;;22.42;60.29;96952.72;5042506;28;20049;-48
2022/06/24 09:29:19;;;;;;;6.88;4.28;;;22.30;82.10;;;22.59;59.62;96944.50;5043249;28;20053;-45
2022/06/24 09:31:46;;;;;;;9.88;4.85;;;22.60;79.90;;;22.71;59.74;96950.59;5043753;28;20082;-46
2022/06/24 09:34:17;;;;;;;3.85;2.97;;;22.80;79.20;;;22.75;59.31;96950.91;5043707;28;20057;-48
2022/06/24 09:36:48;;;;;;;7.63;3.83;;;22.90;78.30;;;22.95;58.62;96945.69;5043384;28;20084;-46
2022/06/24 09:39:16;;;;;;;5.13;3.10;;;23.10;76.50;;;23.06;58.67;96949.31;5042992;28;20041;-47
2022/06/24 09:41:54;;;;;;;6.72;3.17;;;23.20;76.20;;;23.15;58.24;96950.47;5043251;28;20041;-45
2022/06/24 09:44:24;;;;;;;6.43;2.67;;;23.40;76.90;;;23.28;58.08;96956.53;5043022;28;20320;-44
2022/06/24 09:47:06;;;;;;;5.93;2.97;;;23.40;74.70;;;23.30;56.97;96955.22;5043009;28;20366;-43
2022/06/24 09:49:33;;;;;;;5.47;2.83;;;23.40;72.40;;;23.35;56.17;96951.72;5043005;28;20064;-45
2022/06/24 09:52:04;;;;;;;5.45;3.22;;;23.40;72.20;;;23.37;56.39;96961.22;5043156;28;20057;-44
2022/06/24 09:54:34;;;;;;;4.40;3.03;;;23.30;73.20;;;23.27;55.84;96954.91;5041842;28;20057;-46
2022/06/24 09:57:02;;;;;;;3.45;2.60;;;23.20;71.60;;;23.20;56.15;96949.69;5043204;28;20045;-46
2022/06/24 10:02:19;;;;;;;7.22;2.80;;;23.30;73.60;;;23.41;56.19;96947.16;5042899;28;20050;-48
2022/06/24 10:04:51;;;;;;;3.58;2.40;;;23.40;72.50;;;23.46;54.93;96948.00;5042760;28;20067;-47
2022/06/24 10:07:25;;;;;;;3.97;2.92;;;23.60;69.10;;;23.56;55.16;96937.19;5042888;28;20048;-43
2022/06/24 10:10:06;;;;;;;4.15;3.35;;;23.70;69.80;;;23.57;54.41;96933.41;5041702;28;20052;-45
2022/06/24 10:12:41;;;;;;;4.10;2.45;;;23.80;68.20;;;23.48;54.34;96939.59;5042342;28;20053;-47
2022/06/24 10:15:10;;;;;;;6.68;2.90;;;23.60;67.90;;;23.50;54.22;96940.16;5042519;28;20328;-47
2022/06/24 10:17:39;;;;;;;5.32;3.10;;;23.50;68.00;;;23.44;54.27;96942.00;5043292;28;20060;-45
2022/06/24 10:20:11;;;;;;;5.03;2.78;;;23.50;68.80;;;23.48;53.60;96945.03;5042492;28;20050;-48
2022/06/24 10:22:46;;;;;;;5.93;3.05;;;23.50;67.00;;;23.44;52.75;96941.19;5041470;28;20041;-48
2022/06/24 10:25:48;;;;;;;4.22;2.72;;;23.60;65.50;;;23.58;53.62;96931.50;5042377;28;20051;-45
2022/06/24 10:28:16;;;;;;;4.85;2.65;;;23.80;66.80;;;23.73;54.09;96938.91;5042054;28;20049;-46
2022/06/24 10:30:47;;;;;;;5.15;2.70;;;24.00;67.40;;;23.88;53.41;96940.94;5042689;28;20060;-46
2022/06/24 10:33:20;;;;;;;4.35;2.60;;;24.20;65.30;;;23.44;53.01;96931.16;5042541;28;20053;-48
2022/06/24 10:36:05;;;;;;;3.25;2.65;;;23.70;65.50;;;23.67;51.57;96953.56;5041270;28;20060;-45
2022/06/24 10:38:40;;;;;;;3.13;2.40;;;24.10;66.50;;;23.67;52.14;96932.66;5041559;28;20053;-45
2022/06/24 10:41:11;;;;;;;2.78;2.00;;;24.00;64.00;;;23.70;49.75;96936.75;5042773;28;20052;-48